sensor_id;sensor_type;location;lat;lon;timestamp;P1;durP1;ratioP1;P2;durP2;ratioP2
9716;SDS011;4897;43.570;27.832;2023-03-21T00:01:48;21.08;;;10.93;;
9716;SDS011;4897;43.570;27.832;2023-03-21T00:04:16;20.83;;;10.27;;
9716;SDS011;4897;43.570;27.832;2023-03-21T00:06:43;17.38;;;10.98;;
9716;SDS011;4897;43.570;27.832;2023-03-21T00:09:11;22.60;;;10.50;;
9716;SDS011;4897;43.570;27.832;2023-03-21T00:11:38;18.63;;;10.35;;
9716;SDS011;4897;43.570;27.832;2023-03-21T00:14:05;16.25;;;9.60;;
9716;SDS011;4897;43.570;27.832;2023-03-21T00:16:33;16.23;;;10.48;;
9716;SDS011;4897;43.570;27.832;2023-03-21T00:19:01;25.65;;;10.50;;
9716;SDS011;4897;43.570;27.832;2023-03-21T00:21:30;18.23;;;9.60;;
9716;SDS011;4897;43.570;27.832;2023-03-21T00:23:58;26.52;;;10.27;;
9716;SDS011;4897;43.570;27.832;2023-03-21T00:26:27;21.75;;;9.85;;
9716;SDS011;4897;43.570;27.832;2023-03-21T00:28:54;22.52;;;10.07;;
9716;SDS011;4897;43.570;27.832;2023-03-21T00:31:21;14.82;;;8.77;;
9716;SDS011;4897;43.570;27.832;2023-03-21T00:33:48;24.85;;;9.05;;
9716;SDS011;4897;43.570;27.832;2023-03-21T00:36:15;21.70;;;9.38;;
9716;SDS011;4897;43.570;27.832;2023-03-21T00:38:42;20.48;;;9.48;;
9716;SDS011;4897;43.570;27.832;2023-03-21T00:41:09;15.93;;;8.95;;
9716;SDS011;4897;43.570;27.832;2023-03-21T00:43:40;19.05;;;9.18;;
9716;SDS011;4897;43.570;27.832;2023-03-21T00:46:07;17.02;;;8.77;;
9716;SDS011;4897;43.570;27.832;2023-03-21T00:48:34;19.63;;;9.27;;
9716;SDS011;4897;43.570;27.832;2023-03-21T00:51:01;20.75;;;8.82;;
9716;SDS011;4897;43.570;27.832;2023-03-21T00:53:28;15.35;;;9.07;;
9716;SDS011;4897;43.570;27.832;2023-03-21T00:55:55;17.45;;;8.48;;
9716;SDS011;4897;43.570;27.832;2023-03-21T00:58:22;18.95;;;8.20;;
9716;SDS011;4897;43.570;27.832;2023-03-21T01:00:51;16.20;;;8.32;;
9716;SDS011;4897;43.570;27.832;2023-03-21T01:03:18;20.33;;;8.48;;
9716;SDS011;4897;43.570;27.832;2023-03-21T01:05:46;17.33;;;8.63;;
9716;SDS011;4897;43.570;27.832;2023-03-21T01:08:30;14.55;;;8.50;;
9716;SDS011;4897;43.570;27.832;2023-03-21T01:11:00;17.23;;;8.32;;
9716;SDS011;4897;43.570;27.832;2023-03-21T01:13:28;21.60;;;8.93;;
9716;SDS011;4897;43.570;27.832;2023-03-21T01:15:57;13.80;;;8.93;;
9716;SDS011;4897;43.570;27.832;2023-03-21T01:18:25;16.15;;;9.18;;
9716;SDS011;4897;43.570;27.832;2023-03-21T01:20:55;15.52;;;8.30;;
9716;SDS011;4897;43.570;27.832;2023-03-21T01:23:23;14.40;;;8.45;;
9716;SDS011;4897;43.570;27.832;2023-03-21T01:25:52;14.25;;;8.32;;
9716;SDS011;4897;43.570;27.832;2023-03-21T01:28:21;25.80;;;8.38;;
9716;SDS011;4897;43.570;27.832;2023-03-21T01:30:50;19.08;;;8.63;;
9716;SDS011;4897;43.570;27.832;2023-03-21T01:33:19;16.15;;;7.95;;
9716;SDS011;4897;43.570;27.832;2023-03-21T01:35:47;14.32;;;7.95;;
9716;SDS011;4897;43.570;27.832;2023-03-21T01:38:14;16.85;;;8.05;;
9716;SDS011;4897;43.570;27.832;2023-03-21T01:40:42;13.15;;;8.52;;
9716;SDS011;4897;43.570;27.832;2023-03-21T01:43:14;18.08;;;8.25;;
9716;SDS011;4897;43.570;27.832;2023-03-21T01:49:02;18.88;;;8.52;;
9716;SDS011;4897;43.570;27.832;2023-03-21T01:51:33;17.58;;;8.40;;
9716;SDS011;4897;43.570;27.832;2023-03-21T01:54:02;20.25;;;9.50;;
9716;SDS011;4897;43.570;27.832;2023-03-21T01:56:32;14.52;;;9.10;;
9716;SDS011;4897;43.570;27.832;2023-03-21T01:59:04;16.80;;;8.63;;
9716;SDS011;4897;43.570;27.832;2023-03-21T02:01:36;16.90;;;9.10;;
9716;SDS011;4897;43.570;27.832;2023-03-21T02:04:08;23.73;;;10.15;;
9716;SDS011;4897;43.570;27.832;2023-03-21T02:06:40;19.08;;;9.45;;
9716;SDS011;4897;43.570;27.832;2023-03-21T02:09:13;24.13;;;9.68;;
9716;SDS011;4897;43.570;27.832;2023-03-21T02:11:43;20.63;;;10.05;;
9716;SDS011;4897;43.570;27.832;2023-03-21T02:14:12;23.52;;;9.60;;
9716;SDS011;4897;43.570;27.832;2023-03-21T02:16:49;14.68;;;9.88;;
9716;SDS011;4897;43.570;27.832;2023-03-21T02:19:34;20.10;;;10.70;;
9716;SDS011;4897;43.570;27.832;2023-03-21T02:25:43;21.38;;;10.57;;
9716;SDS011;4897;43.570;27.832;2023-03-21T02:28:27;19.60;;;10.20;;
9716;SDS011;4897;43.570;27.832;2023-03-21T02:37:06;14.73;;;9.93;;
9716;SDS011;4897;43.570;27.832;2023-03-21T02:39:47;19.50;;;10.00;;
9716;SDS011;4897;43.570;27.832;2023-03-21T02:42:19;22.50;;;9.25;;
9716;SDS011;4897;43.570;27.832;2023-03-21T02:44:55;22.08;;;9.80;;
9716;SDS011;4897;43.570;27.832;2023-03-21T02:47:28;18.30;;;9.90;;
9716;SDS011;4897;43.570;27.832;2023-03-21T02:50:02;15.25;;;9.10;;
9716;SDS011;4897;43.570;27.832;2023-03-21T02:52:37;15.95;;;8.75;;
9716;SDS011;4897;43.570;27.832;2023-03-21T02:55:07;15.63;;;8.82;;
9716;SDS011;4897;43.570;27.832;2023-03-21T02:57:40;23.80;;;9.52;;
9716;SDS011;4897;43.570;27.832;2023-03-21T03:00:12;17.35;;;8.93;;
9716;SDS011;4897;43.570;27.832;2023-03-21T03:02:43;14.50;;;9.13;;
9716;SDS011;4897;43.570;27.832;2023-03-21T03:05:15;14.20;;;8.82;;
9716;SDS011;4897;43.570;27.832;2023-03-21T03:07:49;17.75;;;9.18;;
9716;SDS011;4897;43.570;27.832;2023-03-21T03:10:40;17.70;;;9.65;;
9716;SDS011;4897;43.570;27.832;2023-03-21T03:13:27;16.90;;;8.95;;
9716;SDS011;4897;43.570;27.832;2023-03-21T03:16:05;17.92;;;10.13;;
9716;SDS011;4897;43.570;27.832;2023-03-21T03:18:46;22.77;;;9.73;;
9716;SDS011;4897;43.570;27.832;2023-03-21T03:21:17;19.63;;;9.30;;
9716;SDS011;4897;43.570;27.832;2023-03-21T03:23:51;14.90;;;9.73;;
9716;SDS011;4897;43.570;27.832;2023-03-21T03:26:22;18.35;;;9.20;;
9716;SDS011;4897;43.570;27.832;2023-03-21T03:28:52;19.92;;;9.20;;
9716;SDS011;4897;43.570;27.832;2023-03-21T03:31:24;18.45;;;8.27;;
9716;SDS011;4897;43.570;27.832;2023-03-21T03:33:59;22.20;;;9.65;;
9716;SDS011;4897;43.570;27.832;2023-03-21T03:36:32;16.10;;;9.23;;
9716;SDS011;4897;43.570;27.832;2023-03-21T03:39:05;18.27;;;8.93;;
9716;SDS011;4897;43.570;27.832;2023-03-21T03:41:37;20.58;;;9.13;;
9716;SDS011;4897;43.570;27.832;2023-03-21T03:44:09;17.08;;;8.68;;
9716;SDS011;4897;43.570;27.832;2023-03-21T03:46:38;17.15;;;8.82;;
9716;SDS011;4897;43.570;27.832;2023-03-21T03:49:13;17.98;;;9.73;;
9716;SDS011;4897;43.570;27.832;2023-03-21T03:51:46;24.48;;;10.27;;
9716;SDS011;4897;43.570;27.832;2023-03-21T03:54:20;17.80;;;9.50;;
9716;SDS011;4897;43.570;27.832;2023-03-21T03:56:49;20.45;;;10.18;;
9716;SDS011;4897;43.570;27.832;2023-03-21T03:59:16;20.27;;;9.13;;
9716;SDS011;4897;43.570;27.832;2023-03-21T04:01:46;14.80;;;8.40;;
9716;SDS011;4897;43.570;27.832;2023-03-21T04:04:18;23.20;;;9.52;;
9716;SDS011;4897;43.570;27.832;2023-03-21T04:06:47;17.83;;;9.70;;
9716;SDS011;4897;43.570;27.832;2023-03-21T04:09:17;24.40;;;9.80;;
9716;SDS011;4897;43.570;27.832;2023-03-21T04:11:45;22.45;;;9.82;;
9716;SDS011;4897;43.570;27.832;2023-03-21T04:14:12;20.95;;;9.10;;
9716;SDS011;4897;43.570;27.832;2023-03-21T04:16:39;16.90;;;8.65;;
9716;SDS011;4897;43.570;27.832;2023-03-21T04:19:06;16.17;;;8.98;;
9716;SDS011;4897;43.570;27.832;2023-03-21T04:21:33;16.35;;;9.27;;
9716;SDS011;4897;43.570;27.832;2023-03-21T04:24:01;13.73;;;8.25;;
9716;SDS011;4897;43.570;27.832;2023-03-21T04:26:28;12.45;;;8.50;;
9716;SDS011;4897;43.570;27.832;2023-03-21T04:28:59;16.77;;;9.02;;
9716;SDS011;4897;43.570;27.832;2023-03-21T04:31:27;13.88;;;8.77;;
9716;SDS011;4897;43.570;27.832;2023-03-21T04:33:55;16.65;;;8.77;;
9716;SDS011;4897;43.570;27.832;2023-03-21T04:36:22;13.25;;;8.88;;
9716;SDS011;4897;43.570;27.832;2023-03-21T04:38:55;13.38;;;8.77;;
9716;SDS011;4897;43.570;27.832;2023-03-21T04:41:25;19.67;;;8.18;;
9716;SDS011;4897;43.570;27.832;2023-03-21T04:43:52;11.95;;;8.65;;
9716;SDS011;4897;43.570;27.832;2023-03-21T04:46:22;13.10;;;7.88;;
9716;SDS011;4897;43.570;27.832;2023-03-21T04:48:49;15.75;;;8.48;;
9716;SDS011;4897;43.570;27.832;2023-03-21T04:51:16;15.27;;;8.85;;
9716;SDS011;4897;43.570;27.832;2023-03-21T04:53:43;15.13;;;8.65;;
9716;SDS011;4897;43.570;27.832;2023-03-21T04:56:13;14.65;;;8.30;;
9716;SDS011;4897;43.570;27.832;2023-03-21T04:58:40;17.92;;;9.65;;
9716;SDS011;4897;43.570;27.832;2023-03-21T05:01:07;18.35;;;9.30;;
9716;SDS011;4897;43.570;27.832;2023-03-21T05:03:36;13.65;;;7.97;;
9716;SDS011;4897;43.570;27.832;2023-03-21T05:06:06;12.48;;;8.20;;
9716;SDS011;4897;43.570;27.832;2023-03-21T05:08:33;13.70;;;8.50;;
9716;SDS011;4897;43.570;27.832;2023-03-21T05:11:00;14.88;;;8.85;;
9716;SDS011;4897;43.570;27.832;2023-03-21T05:13:27;12.13;;;7.85;;
9716;SDS011;4897;43.570;27.832;2023-03-21T05:15:54;15.93;;;9.35;;
9716;SDS011;4897;43.570;27.832;2023-03-21T05:18:24;13.55;;;8.82;;
9716;SDS011;4897;43.570;27.832;2023-03-21T05:20:52;13.82;;;8.68;;
9716;SDS011;4897;43.570;27.832;2023-03-21T05:23:19;15.80;;;8.88;;
9716;SDS011;4897;43.570;27.832;2023-03-21T05:25:46;14.25;;;8.98;;
9716;SDS011;4897;43.570;27.832;2023-03-21T05:28:14;14.20;;;9.10;;
9716;SDS011;4897;43.570;27.832;2023-03-21T05:30:44;18.88;;;9.75;;
9716;SDS011;4897;43.570;27.832;2023-03-21T05:33:12;14.05;;;8.05;;
9716;SDS011;4897;43.570;27.832;2023-03-21T05:35:39;13.88;;;8.65;;
9716;SDS011;4897;43.570;27.832;2023-03-21T05:38:07;13.82;;;8.35;;
9716;SDS011;4897;43.570;27.832;2023-03-21T05:40:38;11.95;;;7.38;;
9716;SDS011;4897;43.570;27.832;2023-03-21T05:43:05;13.00;;;7.80;;
9716;SDS011;4897;43.570;27.832;2023-03-21T05:45:32;12.55;;;7.90;;
9716;SDS011;4897;43.570;27.832;2023-03-21T05:47:59;12.27;;;8.13;;
9716;SDS011;4897;43.570;27.832;2023-03-21T05:50:25;15.93;;;8.48;;
9716;SDS011;4897;43.570;27.832;2023-03-21T05:52:53;13.23;;;7.68;;
9716;SDS011;4897;43.570;27.832;2023-03-21T05:55:21;12.13;;;8.13;;
9716;SDS011;4897;43.570;27.832;2023-03-21T05:57:48;14.80;;;7.63;;
9716;SDS011;4897;43.570;27.832;2023-03-21T06:00:18;15.02;;;8.32;;
9716;SDS011;4897;43.570;27.832;2023-03-21T06:02:46;11.30;;;7.63;;
9716;SDS011;4897;43.570;27.832;2023-03-21T06:05:15;16.50;;;8.25;;
9716;SDS011;4897;43.570;27.832;2023-03-21T06:07:42;12.48;;;8.10;;
9716;SDS011;4897;43.570;27.832;2023-03-21T06:10:10;13.45;;;7.88;;
9716;SDS011;4897;43.570;27.832;2023-03-21T06:12:38;10.82;;;7.47;;
9716;SDS011;4897;43.570;27.832;2023-03-21T06:15:07;13.82;;;8.07;;
9716;SDS011;4897;43.570;27.832;2023-03-21T06:17:37;18.13;;;9.30;;
9716;SDS011;4897;43.570;27.832;2023-03-21T06:20:04;14.18;;;8.68;;
9716;SDS011;4897;43.570;27.832;2023-03-21T06:22:32;17.52;;;8.82;;
9716;SDS011;4897;43.570;27.832;2023-03-21T06:25:04;16.80;;;9.65;;
9716;SDS011;4897;43.570;27.832;2023-03-21T06:27:35;15.05;;;8.93;;
9716;SDS011;4897;43.570;27.832;2023-03-21T06:30:04;16.10;;;9.88;;
9716;SDS011;4897;43.570;27.832;2023-03-21T06:32:32;14.05;;;8.55;;
9716;SDS011;4897;43.570;27.832;2023-03-21T06:34:59;17.73;;;9.10;;
9716;SDS011;4897;43.570;27.832;2023-03-21T06:37:26;11.85;;;8.80;;
9716;SDS011;4897;43.570;27.832;2023-03-21T06:39:53;13.88;;;9.85;;
9716;SDS011;4897;43.570;27.832;2023-03-21T06:42:20;14.20;;;9.55;;
9716;SDS011;4897;43.570;27.832;2023-03-21T06:44:47;18.77;;;12.27;;
9716;SDS011;4897;43.570;27.832;2023-03-21T06:47:15;15.32;;;10.95;;
9716;SDS011;4897;43.570;27.832;2023-03-21T06:49:42;16.83;;;10.90;;
9716;SDS011;4897;43.570;27.832;2023-03-21T06:52:09;21.80;;;11.13;;
9716;SDS011;4897;43.570;27.832;2023-03-21T06:54:39;18.85;;;10.65;;
9716;SDS011;4897;43.570;27.832;2023-03-21T06:57:06;15.88;;;9.95;;
9716;SDS011;4897;43.570;27.832;2023-03-21T06:59:33;19.00;;;10.18;;
9716;SDS011;4897;43.570;27.832;2023-03-21T07:02:00;19.23;;;10.52;;
9716;SDS011;4897;43.570;27.832;2023-03-21T07:04:32;20.00;;;9.73;;
9716;SDS011;4897;43.570;27.832;2023-03-21T07:06:59;19.63;;;9.45;;
9716;SDS011;4897;43.570;27.832;2023-03-21T07:09:29;15.07;;;9.75;;
9716;SDS011;4897;43.570;27.832;2023-03-21T07:11:55;15.93;;;9.27;;
9716;SDS011;4897;43.570;27.832;2023-03-21T07:14:22;15.25;;;9.77;;
9716;SDS011;4897;43.570;27.832;2023-03-21T07:16:50;19.77;;;10.10;;
9716;SDS011;4897;43.570;27.832;2023-03-21T07:19:17;19.50;;;10.38;;
9716;SDS011;4897;43.570;27.832;2023-03-21T07:21:45;17.52;;;9.82;;
9716;SDS011;4897;43.570;27.832;2023-03-21T07:24:12;22.10;;;11.10;;
9716;SDS011;4897;43.570;27.832;2023-03-21T07:26:39;20.30;;;12.48;;
9716;SDS011;4897;43.570;27.832;2023-03-21T07:29:06;19.05;;;10.60;;
9716;SDS011;4897;43.570;27.832;2023-03-21T07:31:36;20.10;;;11.48;;
9716;SDS011;4897;43.570;27.832;2023-03-21T07:34:03;20.17;;;11.18;;
9716;SDS011;4897;43.570;27.832;2023-03-21T07:36:30;16.75;;;10.50;;
9716;SDS011;4897;43.570;27.832;2023-03-21T07:39:02;14.82;;;10.35;;
9716;SDS011;4897;43.570;27.832;2023-03-21T07:41:32;18.40;;;10.15;;
9716;SDS011;4897;43.570;27.832;2023-03-21T07:43:59;14.80;;;9.95;;
9716;SDS011;4897;43.570;27.832;2023-03-21T07:46:27;16.38;;;10.57;;
9716;SDS011;4897;43.570;27.832;2023-03-21T07:48:54;19.63;;;11.13;;
9716;SDS011;4897;43.570;27.832;2023-03-21T07:51:21;13.23;;;9.48;;
9716;SDS011;4897;43.570;27.832;2023-03-21T07:53:48;13.25;;;9.82;;
9716;SDS011;4897;43.570;27.832;2023-03-21T07:56:17;14.55;;;10.10;;
9716;SDS011;4897;43.570;27.832;2023-03-21T07:58:43;18.25;;;10.13;;
9716;SDS011;4897;43.570;27.832;2023-03-21T08:01:10;16.50;;;10.25;;
9716;SDS011;4897;43.570;27.832;2023-03-21T08:03:37;14.93;;;9.93;;
9716;SDS011;4897;43.570;27.832;2023-03-21T08:06:05;15.60;;;9.90;;
9716;SDS011;4897;43.570;27.832;2023-03-21T08:08:32;16.63;;;9.80;;
9716;SDS011;4897;43.570;27.832;2023-03-21T08:11:02;13.52;;;9.80;;
9716;SDS011;4897;43.570;27.832;2023-03-21T08:13:31;17.30;;;10.02;;
9716;SDS011;4897;43.570;27.832;2023-03-21T08:15:58;20.98;;;11.20;;
9716;SDS011;4897;43.570;27.832;2023-03-21T08:18:25;20.23;;;11.20;;
9716;SDS011;4897;43.570;27.832;2023-03-21T08:20:55;20.77;;;10.35;;
9716;SDS011;4897;43.570;27.832;2023-03-21T08:23:23;16.13;;;10.60;;
9716;SDS011;4897;43.570;27.832;2023-03-21T08:25:51;20.00;;;11.00;;
9716;SDS011;4897;43.570;27.832;2023-03-21T08:28:19;13.40;;;10.38;;
9716;SDS011;4897;43.570;27.832;2023-03-21T08:30:48;20.73;;;11.05;;
9716;SDS011;4897;43.570;27.832;2023-03-21T08:33:15;24.13;;;12.38;;
9716;SDS011;4897;43.570;27.832;2023-03-21T08:35:43;18.40;;;10.45;;
9716;SDS011;4897;43.570;27.832;2023-03-21T08:38:10;18.08;;;10.80;;
9716;SDS011;4897;43.570;27.832;2023-03-21T08:40:37;16.63;;;10.48;;
9716;SDS011;4897;43.570;27.832;2023-03-21T08:43:06;20.92;;;10.77;;
9716;SDS011;4897;43.570;27.832;2023-03-21T08:45:33;17.15;;;10.65;;
9716;SDS011;4897;43.570;27.832;2023-03-21T08:48:01;22.02;;;11.07;;
9716;SDS011;4897;43.570;27.832;2023-03-21T08:50:28;17.10;;;10.68;;
9716;SDS011;4897;43.570;27.832;2023-03-21T08:52:56;28.60;;;10.43;;
9716;SDS011;4897;43.570;27.832;2023-03-21T08:55:23;17.35;;;9.95;;
9716;SDS011;4897;43.570;27.832;2023-03-21T08:57:49;19.35;;;12.07;;
9716;SDS011;4897;43.570;27.832;2023-03-21T09:00:17;17.92;;;11.20;;
9716;SDS011;4897;43.570;27.832;2023-03-21T09:02:45;23.67;;;11.13;;
9716;SDS011;4897;43.570;27.832;2023-03-21T09:05:17;17.90;;;11.13;;
9716;SDS011;4897;43.570;27.832;2023-03-21T09:07:50;21.23;;;10.43;;
9716;SDS011;4897;43.570;27.832;2023-03-21T09:10:19;19.45;;;10.52;;
9716;SDS011;4897;43.570;27.832;2023-03-21T09:12:47;19.88;;;11.90;;
9716;SDS011;4897;43.570;27.832;2023-03-21T09:15:14;22.35;;;11.23;;
9716;SDS011;4897;43.570;27.832;2023-03-21T09:17:42;31.65;;;12.27;;
9716;SDS011;4897;43.570;27.832;2023-03-21T09:20:14;38.35;;;14.70;;
9716;SDS011;4897;43.570;27.832;2023-03-21T09:22:44;23.27;;;12.25;;
9716;SDS011;4897;43.570;27.832;2023-03-21T09:25:12;24.10;;;11.85;;
9716;SDS011;4897;43.570;27.832;2023-03-21T09:27:39;18.65;;;10.45;;
9716;SDS011;4897;43.570;27.832;2023-03-21T09:30:07;24.85;;;12.00;;
9716;SDS011;4897;43.570;27.832;2023-03-21T09:32:35;19.42;;;10.93;;
9716;SDS011;4897;43.570;27.832;2023-03-21T09:35:02;18.40;;;11.40;;
9716;SDS011;4897;43.570;27.832;2023-03-21T09:37:31;22.73;;;10.75;;
9716;SDS011;4897;43.570;27.832;2023-03-21T09:40:04;17.23;;;11.40;;
9716;SDS011;4897;43.570;27.832;2023-03-21T09:42:36;21.35;;;11.43;;
9716;SDS011;4897;43.570;27.832;2023-03-21T09:45:11;18.40;;;10.30;;
9716;SDS011;4897;43.570;27.832;2023-03-21T09:47:47;22.05;;;11.95;;
9716;SDS011;4897;43.570;27.832;2023-03-21T09:50:18;16.35;;;10.45;;
9716;SDS011;4897;43.570;27.832;2023-03-21T09:52:52;18.27;;;11.05;;
9716;SDS011;4897;43.570;27.832;2023-03-21T09:55:24;22.15;;;10.88;;
9716;SDS011;4897;43.570;27.832;2023-03-21T09:57:58;13.45;;;9.27;;
9716;SDS011;4897;43.570;27.832;2023-03-21T10:00:34;17.67;;;9.48;;
9716;SDS011;4897;43.570;27.832;2023-03-21T10:03:11;17.48;;;10.50;;
9716;SDS011;4897;43.570;27.832;2023-03-21T10:05:48;19.63;;;10.23;;
9716;SDS011;4897;43.570;27.832;2023-03-21T10:08:21;17.83;;;9.80;;
9716;SDS011;4897;43.570;27.832;2023-03-21T10:10:57;15.30;;;9.50;;
9716;SDS011;4897;43.570;27.832;2023-03-21T10:13:28;19.48;;;10.95;;
9716;SDS011;4897;43.570;27.832;2023-03-21T10:15:59;21.30;;;10.85;;
9716;SDS011;4897;43.570;27.832;2023-03-21T10:18:30;19.73;;;10.77;;
9716;SDS011;4897;43.570;27.832;2023-03-21T10:20:58;21.85;;;11.52;;
9716;SDS011;4897;43.570;27.832;2023-03-21T10:23:26;23.80;;;10.48;;
9716;SDS011;4897;43.570;27.832;2023-03-21T10:25:56;15.70;;;9.43;;
9716;SDS011;4897;43.570;27.832;2023-03-21T10:28:27;18.60;;;10.13;;
9716;SDS011;4897;43.570;27.832;2023-03-21T10:30:57;18.42;;;10.93;;
9716;SDS011;4897;43.570;27.832;2023-03-21T10:33:26;25.60;;;12.20;;
9716;SDS011;4897;43.570;27.832;2023-03-21T10:35:58;16.67;;;10.23;;
9716;SDS011;4897;43.570;27.832;2023-03-21T10:38:28;14.80;;;10.35;;
9716;SDS011;4897;43.570;27.832;2023-03-21T10:40:56;22.42;;;11.88;;
9716;SDS011;4897;43.570;27.832;2023-03-21T10:43:31;19.60;;;10.75;;
9716;SDS011;4897;43.570;27.832;2023-03-21T10:46:05;26.73;;;13.43;;
9716;SDS011;4897;43.570;27.832;2023-03-21T10:48:35;16.25;;;9.77;;
9716;SDS011;4897;43.570;27.832;2023-03-21T10:51:11;16.63;;;10.45;;
9716;SDS011;4897;43.570;27.832;2023-03-21T10:53:45;19.65;;;9.95;;
9716;SDS011;4897;43.570;27.832;2023-03-21T10:56:18;17.30;;;11.70;;
9716;SDS011;4897;43.570;27.832;2023-03-21T10:58:50;17.75;;;10.20;;
9716;SDS011;4897;43.570;27.832;2023-03-21T11:01:24;16.40;;;9.10;;
9716;SDS011;4897;43.570;27.832;2023-03-21T11:03:55;20.42;;;10.63;;
9716;SDS011;4897;43.570;27.832;2023-03-21T11:06:28;18.67;;;10.77;;
9716;SDS011;4897;43.570;27.832;2023-03-21T11:08:59;21.20;;;11.85;;
9716;SDS011;4897;43.570;27.832;2023-03-21T11:11:34;18.92;;;10.65;;
9716;SDS011;4897;43.570;27.832;2023-03-21T11:14:05;16.65;;;11.25;;
9716;SDS011;4897;43.570;27.832;2023-03-21T11:16:37;17.35;;;10.48;;
9716;SDS011;4897;43.570;27.832;2023-03-21T11:19:15;23.60;;;12.90;;
9716;SDS011;4897;43.570;27.832;2023-03-21T11:21:43;18.88;;;11.00;;
9716;SDS011;4897;43.570;27.832;2023-03-21T11:24:12;17.23;;;10.20;;
9716;SDS011;4897;43.570;27.832;2023-03-21T11:26:42;19.60;;;10.95;;
9716;SDS011;4897;43.570;27.832;2023-03-21T11:29:22;17.23;;;10.45;;
9716;SDS011;4897;43.570;27.832;2023-03-21T11:31:56;17.85;;;11.20;;
9716;SDS011;4897;43.570;27.832;2023-03-21T11:34:27;16.05;;;10.02;;
9716;SDS011;4897;43.570;27.832;2023-03-21T11:36:59;12.48;;;8.93;;
9716;SDS011;4897;43.570;27.832;2023-03-21T11:39:32;19.95;;;9.95;;
9716;SDS011;4897;43.570;27.832;2023-03-21T11:42:10;18.30;;;9.80;;
9716;SDS011;4897;43.570;27.832;2023-03-21T11:44:56;22.52;;;10.55;;
9716;SDS011;4897;43.570;27.832;2023-03-21T11:47:27;17.90;;;9.90;;
9716;SDS011;4897;43.570;27.832;2023-03-21T11:49:55;15.52;;;10.15;;
9716;SDS011;4897;43.570;27.832;2023-03-21T11:52:24;14.02;;;9.80;;
9716;SDS011;4897;43.570;27.832;2023-03-21T11:55:07;15.13;;;9.05;;
9716;SDS011;4897;43.570;27.832;2023-03-21T11:57:51;16.65;;;9.55;;
9716;SDS011;4897;43.570;27.832;2023-03-21T12:00:27;15.25;;;9.32;;
9716;SDS011;4897;43.570;27.832;2023-03-21T12:03:15;13.98;;;9.32;;
9716;SDS011;4897;43.570;27.832;2023-03-21T12:05:57;13.65;;;9.32;;
9716;SDS011;4897;43.570;27.832;2023-03-21T12:08:31;16.42;;;10.32;;
9716;SDS011;4897;43.570;27.832;2023-03-21T12:11:07;11.48;;;7.38;;
9716;SDS011;4897;43.570;27.832;2023-03-21T12:13:45;18.60;;;9.30;;
9716;SDS011;4897;43.570;27.832;2023-03-21T12:16:32;11.43;;;8.27;;
9716;SDS011;4897;43.570;27.832;2023-03-21T12:19:18;19.10;;;9.88;;
9716;SDS011;4897;43.570;27.832;2023-03-21T12:22:00;17.95;;;8.40;;
9716;SDS011;4897;43.570;27.832;2023-03-21T12:24:37;11.38;;;8.23;;
9716;SDS011;4897;43.570;27.832;2023-03-21T12:27:15;13.18;;;7.60;;
9716;SDS011;4897;43.570;27.832;2023-03-21T12:29:54;14.18;;;8.63;;
9716;SDS011;4897;43.570;27.832;2023-03-21T12:35:25;18.35;;;9.70;;
9716;SDS011;4897;43.570;27.832;2023-03-21T12:38:06;19.80;;;10.50;;
9716;SDS011;4897;43.570;27.832;2023-03-21T12:40:43;22.58;;;13.45;;
9716;SDS011;4897;43.570;27.832;2023-03-21T12:43:28;18.05;;;10.05;;
9716;SDS011;4897;43.570;27.832;2023-03-21T12:46:04;15.68;;;10.32;;
9716;SDS011;4897;43.570;27.832;2023-03-21T12:48:37;20.90;;;10.85;;
9716;SDS011;4897;43.570;27.832;2023-03-21T12:51:10;17.73;;;9.55;;
9716;SDS011;4897;43.570;27.832;2023-03-21T12:53:43;15.98;;;10.73;;
9716;SDS011;4897;43.570;27.832;2023-03-21T12:56:17;15.82;;;9.80;;
9716;SDS011;4897;43.570;27.832;2023-03-21T12:58:48;27.17;;;11.48;;
9716;SDS011;4897;43.570;27.832;2023-03-21T13:01:24;22.30;;;11.43;;
9716;SDS011;4897;43.570;27.832;2023-03-21T13:04:03;23.40;;;11.05;;
9716;SDS011;4897;43.570;27.832;2023-03-21T13:06:35;20.88;;;11.25;;
9716;SDS011;4897;43.570;27.832;2023-03-21T13:09:06;19.05;;;11.05;;
9716;SDS011;4897;43.570;27.832;2023-03-21T13:11:40;15.07;;;9.63;;
9716;SDS011;4897;43.570;27.832;2023-03-21T13:14:11;16.55;;;9.32;;
9716;SDS011;4897;43.570;27.832;2023-03-21T13:16:43;16.55;;;11.10;;
9716;SDS011;4897;43.570;27.832;2023-03-21T13:19:16;15.82;;;10.52;;
9716;SDS011;4897;43.570;27.832;2023-03-21T13:21:51;21.70;;;11.50;;
9716;SDS011;4897;43.570;27.832;2023-03-21T13:24:27;25.23;;;12.10;;
9716;SDS011;4897;43.570;27.832;2023-03-21T13:27:00;22.23;;;13.63;;
9716;SDS011;4897;43.570;27.832;2023-03-21T13:29:31;26.42;;;12.98;;
9716;SDS011;4897;43.570;27.832;2023-03-21T13:32:09;24.33;;;11.05;;
9716;SDS011;4897;43.570;27.832;2023-03-21T13:34:44;19.70;;;10.85;;
9716;SDS011;4897;43.570;27.832;2023-03-21T13:37:19;22.75;;;11.30;;
9716;SDS011;4897;43.570;27.832;2023-03-21T13:39:46;23.17;;;11.50;;
9716;SDS011;4897;43.570;27.832;2023-03-21T13:42:17;20.52;;;11.32;;
9716;SDS011;4897;43.570;27.832;2023-03-21T13:44:57;29.23;;;13.27;;
9716;SDS011;4897;43.570;27.832;2023-03-21T13:47:33;26.15;;;13.90;;
9716;SDS011;4897;43.570;27.832;2023-03-21T13:55:56;19.25;;;12.68;;
9716;SDS011;4897;43.570;27.832;2023-03-21T13:58:53;20.85;;;11.43;;
9716;SDS011;4897;43.570;27.832;2023-03-21T14:04:26;21.05;;;12.10;;
9716;SDS011;4897;43.570;27.832;2023-03-21T14:06:57;22.83;;;11.68;;
9716;SDS011;4897;43.570;27.832;2023-03-21T14:09:28;20.10;;;11.68;;
9716;SDS011;4897;43.570;27.832;2023-03-21T14:11:58;30.90;;;13.23;;
9716;SDS011;4897;43.570;27.832;2023-03-21T14:14:28;20.80;;;13.23;;
9716;SDS011;4897;43.570;27.832;2023-03-21T14:17:00;24.35;;;13.25;;
9716;SDS011;4897;43.570;27.832;2023-03-21T14:19:31;20.65;;;12.07;;
9716;SDS011;4897;43.570;27.832;2023-03-21T14:22:02;28.60;;;13.05;;
9716;SDS011;4897;43.570;27.832;2023-03-21T14:24:35;19.55;;;11.32;;
9716;SDS011;4897;43.570;27.832;2023-03-21T14:27:03;20.90;;;11.52;;
9716;SDS011;4897;43.570;27.832;2023-03-21T14:29:32;21.13;;;11.95;;
9716;SDS011;4897;43.570;27.832;2023-03-21T14:32:00;24.52;;;13.10;;
9716;SDS011;4897;43.570;27.832;2023-03-21T14:34:29;23.95;;;12.55;;
9716;SDS011;4897;43.570;27.832;2023-03-21T14:37:00;27.63;;;12.77;;
9716;SDS011;4897;43.570;27.832;2023-03-21T14:39:28;20.73;;;13.18;;
9716;SDS011;4897;43.570;27.832;2023-03-21T14:41:56;22.40;;;11.98;;
9716;SDS011;4897;43.570;27.832;2023-03-21T14:44:31;32.67;;;13.05;;
9716;SDS011;4897;43.570;27.832;2023-03-21T14:47:00;24.45;;;13.35;;
9716;SDS011;4897;43.570;27.832;2023-03-21T14:49:29;23.35;;;13.15;;
9716;SDS011;4897;43.570;27.832;2023-03-21T14:51:59;27.83;;;16.75;;
9716;SDS011;4897;43.570;27.832;2023-03-21T14:54:28;19.90;;;12.30;;
9716;SDS011;4897;43.570;27.832;2023-03-21T14:56:56;25.05;;;14.15;;
9716;SDS011;4897;43.570;27.832;2023-03-21T14:59:28;35.38;;;20.48;;
9716;SDS011;4897;43.570;27.832;2023-03-21T15:02:00;26.48;;;16.75;;
9716;SDS011;4897;43.570;27.832;2023-03-21T15:04:32;24.63;;;14.23;;
9716;SDS011;4897;43.570;27.832;2023-03-21T15:07:00;26.90;;;16.60;;
9716;SDS011;4897;43.570;27.832;2023-03-21T15:09:30;27.50;;;17.35;;
9716;SDS011;4897;43.570;27.832;2023-03-21T15:11:59;25.00;;;14.63;;
9716;SDS011;4897;43.570;27.832;2023-03-21T15:14:28;26.05;;;14.40;;
9716;SDS011;4897;43.570;27.832;2023-03-21T15:16:58;25.33;;;13.98;;
9716;SDS011;4897;43.570;27.832;2023-03-21T15:19:29;31.48;;;20.13;;
9716;SDS011;4897;43.570;27.832;2023-03-21T15:22:02;30.65;;;17.23;;
9716;SDS011;4897;43.570;27.832;2023-03-21T15:24:38;30.75;;;14.82;;
9716;SDS011;4897;43.570;27.832;2023-03-21T15:27:07;26.02;;;16.10;;